Esmont, Virginia
Current Conditions -  °F | °C
As of 2:53 PM on Thursday 18 Dec 2014 (Local Time) from KCHO Reporting Station
Clear Clear  
Wind Chill: 38°   Ceiling: Unl
Heat Index: 42°   Visibility: 10mi
Dew Point: 21°   Wind: 6mph
Humidity: 43%   Direction: 200°SSW
Pressure: 30.06"   Gusts: NA
Location:  37.83°N, 78.61°W
Report Text: KCHO 181953Z 20005KT 10SM CLR 06/M06 A3006 RMK AO2 SLP183 T00561061
Loading
Personal Weather Stations






























Interactive Weather Map New forecast layout! Learn more

10-Day Weather Forecast

Advertisements
Track Severe Weather on mobile